Time;durP1;ratioP1;P1;durP2;ratioP2;P2;SDS_P1;SDS_P2;PMS_P1;PMS_P2;Temp;Humidity;BMP_temperature;BMP_pressure;BME280_temperature;BME280_humidity;BME280_pressure;Samples;Min_cycle;Max_cycle;Signal;HPM_P1;HPM_P2
2021/03/09 00:02:19;;;;;;;;;;;19.60;51.90;;;;;;5054886;28;1342;-68
2021/03/09 00:04:44;;;;;;;;;;;19.50;51.90;;;;;;5053818;28;1269;-67
2021/03/09 00:07:10;;;;;;;;;;;19.50;51.90;;;;;;5054530;28;1343;-69
2021/03/09 00:09:35;;;;;;;;;;;19.50;51.90;;;;;;5055158;28;1044;-66
2021/03/09 00:12:00;;;;;;;;;;;19.50;51.90;;;;;;5053742;28;1077;-66
2021/03/09 00:14:26;;;;;;;;;;;19.50;51.90;;;;;;5055121;28;1313;-65
2021/03/09 00:16:51;;;;;;;;;;;19.50;52.00;;;;;;5054320;28;1263;-67
2021/03/09 00:19:17;;;;;;;;;;;19.50;52.00;;;;;;5054434;28;1345;-66
2021/03/09 00:21:42;;;;;;;;;;;19.50;52.00;;;;;;5054649;28;1967;-66
2021/03/09 00:24:08;;;;;;;;;;;19.50;52.10;;;;;;5053623;28;1404;-66
2021/03/09 00:26:33;;;;;;;;;;;19.50;52.10;;;;;;5054577;28;1314;-69
2021/03/09 00:28:58;;;;;;;;;;;19.50;52.10;;;;;;5054531;28;1236;-67
2021/03/09 00:31:24;;;;;;;;;;;19.50;52.10;;;;;;5054590;28;1307;-67
2021/03/09 00:33:49;;;;;;;;;;;19.50;52.10;;;;;;5054447;28;1269;-70
2021/03/09 00:36:15;;;;;;;;;;;19.50;52.20;;;;;;5054365;28;1295;-67
2021/03/09 00:38:40;;;;;;;;;;;19.50;52.20;;;;;;5054079;28;1244;-66
2021/03/09 00:41:06;;;;;;;;;;;19.40;52.10;;;;;;5054783;28;1913;-69
2021/03/09 00:43:31;;;;;;;;;;;19.40;52.10;;;;;;5054423;28;1238;-67
2021/03/09 00:45:56;;;;;;;;;;;19.40;52.20;;;;;;5054874;28;1298;-67
2021/03/09 00:48:22;;;;;;;;;;;19.40;52.20;;;;;;5053732;28;1095;-67
2021/03/09 00:50:47;;;;;;;;;;;19.40;52.20;;;;;;5054281;28;1293;-66
2021/03/09 00:53:13;;;;;;;;;;;19.40;52.20;;;;;;5054133;28;1223;-66
2021/03/09 00:55:38;;;;;;;;;;;19.40;52.20;;;;;;5054179;28;1216;-68
2021/03/09 00:58:03;;;;;;;;;;;19.40;52.30;;;;;;5053827;28;1570;-66
2021/03/09 01:00:29;;;;;;;;;;;19.40;52.30;;;;;;5054196;28;1894;-66
2021/03/09 01:02:54;;;;;;;;;;;19.40;52.30;;;;;;5053829;28;1274;-68
2021/03/09 01:05:20;;;;;;;;;;;19.40;52.30;;;;;;5047827;28;1361;-66
2021/03/09 01:07:46;;;;;;;;;;;19.40;52.30;;;;;;5040348;28;1350;-65
2021/03/09 01:10:11;;;;;;;;;;;19.40;52.30;;;;;;5046815;28;1351;-66
2021/03/09 01:12:37;;;;;;;;;;;19.40;52.30;;;;;;5039288;28;1106;-66
2021/03/09 01:15:03;;;;;;;;;;;19.40;52.30;;;;;;5061747;28;1305;-67
2021/03/09 01:17:28;;;;;;;;;;;19.40;52.40;;;;;;5041682;28;1254;-67
2021/03/09 01:19:54;;;;;;;;;;;19.40;52.40;;;;;;5046634;28;1905;-66
2021/03/09 01:22:19;;;;;;;;;;;19.30;52.40;;;;;;5045032;28;1214;-67
2021/03/09 01:24:45;;;;;;;;;;;19.30;52.40;;;;;;5043325;28;1317;-67
2021/03/09 01:27:11;;;;;;;;;;;19.30;52.40;;;;;;5039379;28;1275;-68
2021/03/09 01:29:37;;;;;;;;;;;19.40;53.10;;;;;;5048326;28;1237;-68
2021/03/09 01:32:03;;;;;;;;;;;19.30;52.40;;;;;;5048501;28;1364;-69
2021/03/09 01:34:28;;;;;;;;;;;19.30;52.50;;;;;;5047550;28;1239;-68
2021/03/09 01:36:53;;;;;;;;;;;19.30;52.50;;;;;;5039031;28;1444;-68
2021/03/09 01:39:19;;;;;;;;;;;19.30;52.50;;;;;;5041557;28;1207;-68
2021/03/09 01:41:44;;;;;;;;;;;19.30;52.50;;;;;;5040001;28;1902;-69
2021/03/09 01:44:10;;;;;;;;;;;19.30;52.50;;;;;;5048215;28;1284;-68
2021/03/09 01:46:35;;;;;;;;;;;19.30;52.50;;;;;;5046899;28;1496;-68
2021/03/09 01:49:01;;;;;;;;;;;19.30;52.50;;;;;;5044678;28;1239;-69
2021/03/09 01:51:26;;;;;;;;;;;19.30;52.50;;;;;;5048492;28;1187;-68
2021/03/09 01:53:51;;;;;;;;;;;19.30;52.60;;;;;;5046548;28;1223;-69
2021/03/09 01:56:17;;;;;;;;;;;19.30;52.50;;;;;;5049127;28;1346;-66
2021/03/09 01:58:45;;;;;;;;;;;19.30;52.60;;;;;;5041245;28;1286;-68
2021/03/09 02:01:10;;;;;;;;;;;19.30;52.60;;;;;;5038862;28;1906;-69
2021/03/09 02:03:36;;;;;;;;;;;19.30;52.60;;;;;;5050952;28;1265;-70
2021/03/09 02:06:01;;;;;;;;;;;19.30;52.60;;;;;;5040162;28;1412;-67
2021/03/09 02:08:26;;;;;;;;;;;19.30;52.60;;;;;;5047908;28;1236;-68
2021/03/09 02:10:52;;;;;;;;;;;19.30;52.60;;;;;;5041413;28;1254;-68
2021/03/09 02:13:20;;;;;;;;;;;19.30;52.60;;;;;;5051015;28;1308;-67
2021/03/09 02:16:09;;;;;;;;;;;19.30;52.70;;;;;;5051302;28;1374;-68
2021/03/09 02:18:34;;;;;;;;;;;19.20;52.60;;;;;;5046457;28;1349;-68
2021/03/09 02:21:07;;;;;;;;;;;19.20;52.60;;;;;;5052840;28;1901;-68
2021/03/09 02:23:52;;;;;;;;;;;19.20;52.70;;;;;;5042741;28;1129;-68
2021/03/09 02:26:36;;;;;;;;;;;19.20;52.60;;;;;;5039360;28;1289;-70
2021/03/09 02:29:20;;;;;;;;;;;19.20;52.70;;;;;;5040865;28;1128;-69
2021/03/09 02:31:47;;;;;;;;;;;19.20;52.70;;;;;;5042218;28;1240;-67
2021/03/09 02:34:16;;;;;;;;;;;19.20;52.70;;;;;;5043236;28;1256;-68
2021/03/09 02:36:41;;;;;;;;;;;19.20;52.70;;;;;;5061676;22;2527;-68
2021/03/09 02:39:11;;;;;;;;;;;19.20;52.70;;;;;;5048505;28;1112;-68
2021/03/09 02:41:42;;;;;;;;;;;19.20;52.70;;;;;;5046215;28;1963;-69
2021/03/09 02:44:07;;;;;;;;;;;19.20;52.70;;;;;;5039341;28;1216;-68
2021/03/09 02:46:33;;;;;;;;;;;19.20;52.70;;;;;;5049341;28;1299;-70
2021/03/09 02:48:58;;;;;;;;;;;19.30;52.70;;;;;;5031116;28;1244;-68
2021/03/09 02:51:24;;;;;;;;;;;19.30;52.70;;;;;;5050579;28;1273;-69
2021/03/09 02:53:50;;;;;;;;;;;19.30;52.70;;;;;;5044075;28;1303;-68
2021/03/09 02:56:16;;;;;;;;;;;19.30;52.60;;;;;;5048744;28;1350;-68
2021/03/09 02:58:43;;;;;;;;;;;19.30;52.60;;;;;;5057727;28;1240;-70
2021/03/09 03:01:09;;;;;;;;;;;19.30;52.60;;;;;;5038969;28;1967;-70
2021/03/09 03:03:34;;;;;;;;;;;19.30;52.50;;;;;;5063586;28;1489;-69
2021/03/09 03:06:00;;;;;;;;;;;19.30;52.50;;;;;;5070705;28;1678;-70
2021/03/09 03:08:25;;;;;;;;;;;19.30;52.50;;;;;;5053333;28;1675;-70
2021/03/09 03:10:51;;;;;;;;;;;19.30;52.50;;;;;;5051213;28;1538;-69
2021/03/09 03:13:16;;;;;;;;;;;19.30;52.50;;;;;;5051102;28;1611;-70
2021/03/09 03:15:42;;;;;;;;;;;19.30;52.50;;;;;;5056757;28;1445;-69
2021/03/09 03:18:11;;;;;;;;;;;19.30;52.50;;;;;;5052086;28;1446;-70
2021/03/09 03:20:36;;;;;;;;;;;19.30;52.40;;;;;;5044044;28;1905;-69
2021/03/09 03:23:02;;;;;;;;;;;19.30;52.40;;;;;;5056009;28;1286;-68
2021/03/09 03:25:28;;;;;;;;;;;19.30;52.40;;;;;;5050282;28;1107;-68
2021/03/09 03:27:53;;;;;;;;;;;19.30;52.40;;;;;;5060366;28;1387;-69
2021/03/09 03:30:19;;;;;;;;;;;19.30;52.50;;;;;;5069601;28;1143;-71
2021/03/09 03:32:45;;;;;;;;;;;19.30;52.40;;;;;;5038517;28;1349;-70
2021/03/09 03:35:11;;;;;;;;;;;19.30;52.40;;;;;;5045722;28;1069;-69
2021/03/09 03:37:37;;;;;;;;;;;19.40;52.40;;;;;;5048937;28;1422;-69
2021/03/09 03:40:16;;;;;;;;;;;19.40;52.30;;;;;;5053254;28;1906;-69
2021/03/09 03:42:41;;;;;;;;;;;19.40;52.20;;;;;;5051471;28;1304;-68
2021/03/09 03:45:07;;;;;;;;;;;19.50;52.20;;;;;;5047550;28;1215;-69
2021/03/09 03:47:33;;;;;;;;;;;19.60;52.00;;;;;;5053636;28;1422;-68
2021/03/09 03:49:58;;;;;;;;;;;19.80;51.80;;;;;;5053677;28;1765;-68
2021/03/09 03:52:42;;;;;;;;;;;19.80;51.60;;;;;;5054913;28;1328;-68
2021/03/09 03:55:17;;;;;;;;;;;20.00;51.30;;;;;;5055503;28;1340;-67
2021/03/09 03:57:48;;;;;;;;;;;20.10;51.00;;;;;;5053514;28;1214;-68
2021/03/09 04:00:15;;;;;;;;;;;20.30;50.80;;;;;;5054101;28;1898;-68
2021/03/09 04:02:40;;;;;;;;;;;20.40;50.60;;;;;;5053847;28;1346;-68
2021/03/09 04:05:06;;;;;;;;;;;20.40;50.30;;;;;;5054053;28;1942;-68
2021/03/09 04:07:32;;;;;;;;;;;20.60;50.20;;;;;;5053220;28;1682;-68
2021/03/09 04:09:57;;;;;;;;;;;20.60;49.90;;;;;;5054046;28;1377;-68
2021/03/09 04:12:23;;;;;;;;;;;20.70;49.80;;;;;;5055129;28;1373;-68
2021/03/09 04:14:49;;;;;;;;;;;20.80;49.60;;;;;;5053568;28;1552;-68
2021/03/09 04:17:14;;;;;;;;;;;20.90;49.50;;;;;;5071940;28;1389;-68
2021/03/09 04:19:40;;;;;;;;;;;20.90;49.40;;;;;;5056689;28;1902;-68
2021/03/09 04:22:05;;;;;;;;;;;21.00;49.30;;;;;;5073739;28;1182;-68
2021/03/09 04:24:31;;;;;;;;;;;21.00;49.20;;;;;;5073405;28;1461;-68
2021/03/09 04:26:56;;;;;;;;;;;21.10;49.10;;;;;;5073730;28;1271;-68
2021/03/09 04:29:21;;;;;;;;;;;21.10;49.00;;;;;;5073080;28;1099;-68
2021/03/09 04:31:47;;;;;;;;;;;21.20;48.90;;;;;;5073691;28;1366;-68
2021/03/09 04:34:12;;;;;;;;;;;21.20;48.90;;;;;;5073453;28;1084;-68
2021/03/09 04:36:39;;;;;;;;;;;21.20;48.80;;;;;;5073156;28;1366;-68
2021/03/09 04:39:04;;;;;;;;;;;21.20;48.80;;;;;;5073273;28;1147;-68
2021/03/09 04:41:30;;;;;;;;;;;21.30;48.80;;;;;;5074239;28;1906;-68
2021/03/09 04:43:56;;;;;;;;;;;21.30;48.40;;;;;;5073264;28;1131;-68
2021/03/09 04:46:21;;;;;;;;;;;21.30;48.40;;;;;;5072971;28;1524;-68
2021/03/09 04:48:47;;;;;;;;;;;21.30;48.40;;;;;;5073832;28;1334;-68
2021/03/09 04:51:14;;;;;;;;;;;21.30;48.40;;;;;;5072318;28;1131;-68
2021/03/09 04:53:40;;;;;;;;;;;21.30;48.40;;;;;;5073293;28;1075;-68
2021/03/09 04:56:05;;;;;;;;;;;21.40;48.40;;;;;;5073111;28;1330;-68
2021/03/09 04:58:31;;;;;;;;;;;21.40;48.40;;;;;;5072576;28;1296;-68
2021/03/09 05:00:56;;;;;;;;;;;21.40;48.40;;;;;;5074181;28;1960;-68
2021/03/09 05:03:23;;;;;;;;;;;21.40;48.40;;;;;;5074301;28;1099;-68
2021/03/09 05:05:49;;;;;;;;;;;21.40;48.40;;;;;;5072839;28;1462;-68
2021/03/09 05:08:14;;;;;;;;;;;21.40;48.40;;;;;;5073541;28;1313;-68
2021/03/09 05:10:40;;;;;;;;;;;21.40;48.40;;;;;;5055995;28;1035;-68
2021/03/09 05:13:05;;;;;;;;;;;21.50;48.50;;;;;;5054008;28;1142;-68
2021/03/09 05:15:31;;;;;;;;;;;21.50;48.40;;;;;;5056447;28;1180;-68
2021/03/09 05:17:56;;;;;;;;;;;21.50;48.50;;;;;;5072188;28;1251;-68
2021/03/09 05:20:21;;;;;;;;;;;21.50;48.50;;;;;;5073863;28;1902;-68
2021/03/09 05:22:47;;;;;;;;;;;21.50;48.50;;;;;;5073592;28;1369;-68
2021/03/09 05:25:13;;;;;;;;;;;21.50;48.50;;;;;;5072608;28;1334;-68
2021/03/09 05:27:42;;;;;;;;;;;21.50;48.50;;;;;;5073073;28;1301;-68
2021/03/09 05:30:07;;;;;;;;;;;21.50;48.50;;;;;;5072419;28;1204;-68
2021/03/09 05:32:33;;;;;;;;;;;21.50;48.50;;;;;;5055881;28;1412;-68
2021/03/09 05:34:58;;;;;;;;;;;21.50;48.50;;;;;;5073314;28;1165;-68
2021/03/09 05:37:24;;;;;;;;;;;21.50;48.50;;;;;;5073135;28;1337;-68
2021/03/09 05:39:49;;;;;;;;;;;21.50;48.60;;;;;;5072981;28;1953;-68
2021/03/09 05:42:15;;;;;;;;;;;21.50;48.60;;;;;;5072163;28;1283;-69
2021/03/09 05:44:40;;;;;;;;;;;21.40;48.60;;;;;;5071914;28;1154;-68
2021/03/09 05:47:06;;;;;;;;;;;21.40;48.60;;;;;;5073138;28;1288;-68
2021/03/09 05:49:31;;;;;;;;;;;21.40;48.70;;;;;;5072839;28;1130;-68
2021/03/09 05:51:57;;;;;;;;;;;21.40;48.80;;;;;;5073349;28;1130;-68
2021/03/09 05:54:23;;;;;;;;;;;21.40;48.80;;;;;;5071629;28;1092;-68
2021/03/09 05:56:48;;;;;;;;;;;21.40;48.90;;;;;;5073070;28;1359;-68
2021/03/09 05:59:14;;;;;;;;;;;21.40;48.90;;;;;;5072881;28;1392;-68
2021/03/09 06:01:39;;;;;;;;;;;21.40;49.00;;;;;;5071702;28;1961;-68
2021/03/09 06:04:05;;;;;;;;;;;21.30;49.00;;;;;;5073092;28;1122;-68
2021/03/09 06:06:31;;;;;;;;;;;21.30;49.10;;;;;;5071861;28;1364;-68
2021/03/09 06:08:56;;;;;;;;;;;21.30;49.10;;;;;;5067760;28;1373;-68
2021/03/09 06:11:22;;;;;;;;;;;21.30;49.20;;;;;;5052644;28;1076;-68
2021/03/09 06:13:47;;;;;;;;;;;21.20;49.20;;;;;;5052860;28;1313;-68
2021/03/09 06:16:13;;;;;;;;;;;21.20;49.20;;;;;;5068007;28;1772;-68
2021/03/09 06:18:50;;;;;;;;;;;21.20;49.30;;;;;;5052483;28;1338;-68
2021/03/09 06:21:16;;;;;;;;;;;21.20;49.40;;;;;;5052652;28;1953;-68
2021/03/09 06:23:42;;;;;;;;;;;21.20;49.40;;;;;;5052598;28;1354;-67
2021/03/09 06:26:26;;;;;;;;;;;21.10;49.40;;;;;;5052791;28;1221;-68
2021/03/09 06:29:06;;;;;;;;;;;21.10;49.50;;;;;;5052894;28;1039;-69
2021/03/09 06:31:32;;;;;;;;;;;21.10;49.60;;;;;;5052531;28;1116;-68
2021/03/09 06:34:16;;;;;;;;;;;21.10;49.60;;;;;;5052730;28;1103;-68
2021/03/09 06:36:41;;;;;;;;;;;21.00;49.60;;;;;;5052431;28;1366;-69
2021/03/09 06:39:07;;;;;;;;;;;21.00;49.70;;;;;;5052602;28;1279;-69
2021/03/09 06:41:32;;;;;;;;;;;21.00;49.70;;;;;;5052568;28;1965;-69
2021/03/09 06:43:58;;;;;;;;;;;21.00;49.80;;;;;;5052341;28;1274;-70
2021/03/09 06:46:24;;;;;;;;;;;21.00;49.80;;;;;;5052570;28;1303;-68
2021/03/09 06:48:53;;;;;;;;;;;20.90;49.80;;;;;;5050658;28;1080;-69
2021/03/09 06:51:28;;;;;;;;;;;20.90;49.90;;;;;;5052679;28;1104;-68
2021/03/09 06:53:57;;;;;;;;;;;20.90;49.90;;;;;;5052166;28;1404;-71
2021/03/09 06:56:26;;;;;;;;;;;20.90;50.00;;;;;;5048631;28;1898;-70
2021/03/09 06:58:51;;;;;;;;;;;20.90;50.00;;;;;;5042320;28;1103;-70
2021/03/09 07:01:17;;;;;;;;;;;20.80;50.00;;;;;;5050993;28;1902;-70
2021/03/09 07:03:42;;;;;;;;;;;20.80;49.90;;;;;;5070820;28;1083;-70
2021/03/09 07:06:07;;;;;;;;;;;20.80;49.80;;;;;;5072561;28;1317;-70
2021/03/09 07:08:33;;;;;;;;;;;20.80;50.00;;;;;;5070266;28;1190;-70
2021/03/09 07:10:58;;;;;;;;;;;20.70;50.10;;;;;;5051138;28;1127;-70
2021/03/09 07:13:24;;;;;;;;;;;20.70;50.10;;;;;;5066381;28;1409;-70
2021/03/09 07:15:53;;;;;;;;;;;20.70;50.20;;;;;;5067309;28;1106;-70
2021/03/09 07:18:25;;;;;;;;;;;20.70;50.20;;;;;;5055971;28;1198;-70
2021/03/09 07:20:51;;;;;;;;;;;20.70;50.30;;;;;;5054547;28;1901;-70
2021/03/09 07:23:26;;;;;;;;;;;20.70;50.30;;;;;;5054975;28;1170;-70
2021/03/09 07:25:54;;;;;;;;;;;20.60;50.30;;;;;;5055803;28;1343;-70
2021/03/09 07:28:21;;;;;;;;;;;20.60;50.40;;;;;;5057582;28;1179;-70
2021/03/09 07:30:47;;;;;;;;;;;20.60;50.40;;;;;;5074484;28;1059;-70
2021/03/09 07:33:12;;;;;;;;;;;20.60;50.50;;;;;;5074703;28;1317;-70
2021/03/09 07:35:38;;;;;;;;;;;20.60;50.50;;;;;;5076803;28;1204;-70
2021/03/09 07:38:05;;;;;;;;;;;20.60;50.50;;;;;;5074192;28;1309;-70
2021/03/09 07:40:32;;;;;;;;;;;20.60;50.60;;;;;;5075666;28;1965;-69
2021/03/09 07:42:57;;;;;;;;;;;20.60;50.60;;;;;;5072488;28;1277;-69
2021/03/09 07:45:32;;;;;;;;;;;20.60;50.60;;;;;;5071179;28;1265;-70
2021/03/09 07:48:03;;;;;;;;;;;20.50;50.70;;;;;;5054274;28;1312;-70
2021/03/09 07:50:32;;;;;;;;;;;20.50;50.70;;;;;;5054590;28;1076;-70
2021/03/09 07:52:58;;;;;;;;;;;20.50;50.70;;;;;;5060635;28;1020;-70
2021/03/09 07:55:23;;;;;;;;;;;20.50;50.70;;;;;;5075389;28;1357;-70
2021/03/09 07:57:49;;;;;;;;;;;20.50;50.80;;;;;;5057002;28;1313;-70
2021/03/09 08:00:14;;;;;;;;;;;20.50;50.80;;;;;;5074215;28;1894;-71
2021/03/09 08:02:52;;;;;;;;;;;20.40;50.80;;;;;;5055058;28;2203;-71
2021/03/09 08:05:22;;;;;;;;;;;20.40;50.80;;;;;;5067944;28;1155;-71
2021/03/09 08:07:53;;;;;;;;;;;20.50;50.90;;;;;;5056522;28;1352;-71
2021/03/09 08:10:27;;;;;;;;;;;20.40;50.80;;;;;;5055989;28;1241;-71
2021/03/09 08:12:53;;;;;;;;;;;20.40;50.90;;;;;;5053801;28;1293;-71
2021/03/09 08:15:19;;;;;;;;;;;20.40;50.90;;;;;;5055563;28;1881;-71
2021/03/09 08:17:44;;;;;;;;;;;20.40;51.00;;;;;;5050837;28;1228;-71
2021/03/09 08:20:27;;;;;;;;;;;20.40;51.00;;;;;;5042395;28;1898;-71
2021/03/09 08:22:53;;;;;;;;;;;20.40;51.00;;;;;;5055700;28;1406;-71
2021/03/09 08:25:19;;;;;;;;;;;20.40;51.10;;;;;;5073342;28;1290;-71
2021/03/09 08:27:45;;;;;;;;;;;20.40;51.10;;;;;;5055990;28;1424;-70
2021/03/09 08:30:29;;;;;;;;;;;20.30;51.10;;;;;;5073761;28;1106;-71
2021/03/09 08:33:14;;;;;;;;;;;20.30;51.10;;;;;;5074759;28;1071;-71
2021/03/09 08:35:40;;;;;;;;;;;20.30;51.10;;;;;;5074734;28;1408;-71
2021/03/09 08:38:12;;;;;;;;;;;20.30;51.20;;;;;;5079499;22;2076;-66
2021/03/09 08:40:48;;;;;;;;;;;20.30;51.20;;;;;;5033259;28;1963;-67
2021/03/09 08:43:13;;;;;;;;;;;20.30;51.20;;;;;;5053082;28;1458;-65
2021/03/09 08:45:39;;;;;;;;;;;20.30;51.30;;;;;;5054237;28;1138;-66
2021/03/09 08:48:04;;;;;;;;;;;20.20;51.30;;;;;;5054120;28;1279;-66
2021/03/09 08:50:39;;;;;;;;;;;20.20;51.30;;;;;;5052949;28;1040;-66
2021/03/09 08:53:05;;;;;;;;;;;20.20;51.30;;;;;;5054472;28;1346;-67
2021/03/09 08:55:30;;;;;;;;;;;20.20;51.30;;;;;;5054101;28;1358;-66
2021/03/09 08:57:56;;;;;;;;;;;20.20;51.30;;;;;;5052549;28;1355;-66
2021/03/09 09:00:21;;;;;;;;;;;20.20;51.40;;;;;;5052618;28;1961;-66
2021/03/09 09:02:47;;;;;;;;;;;20.20;51.40;;;;;;5054457;28;1142;-66
2021/03/09 09:05:12;;;;;;;;;;;20.20;51.40;;;;;;5053837;28;1127;-67
2021/03/09 09:07:39;;;;;;;;;;;20.20;51.40;;;;;;5053793;28;1179;-66
2021/03/09 09:10:09;;;;;;;;;;;20.10;51.50;;;;;;5041070;28;1044;-66
2021/03/09 09:12:35;;;;;;;;;;;20.10;51.50;;;;;;5033690;28;1119;-66
2021/03/09 09:15:07;;;;;;;;;;;20.10;51.50;;;;;;5049114;28;1052;-66
2021/03/09 09:17:33;;;;;;;;;;;20.10;51.50;;;;;;5053313;28;1211;-65
2021/03/09 09:19:59;;;;;;;;;;;20.10;51.60;;;;;;5053671;28;1902;-67
2021/03/09 09:22:28;;;;;;;;;;;20.10;51.60;;;;;;5052466;28;1306;-67
2021/03/09 09:25:04;;;;;;;;;;;20.10;51.60;;;;;;5053537;28;1135;-66
2021/03/09 09:27:36;;;;;;;;;;;20.10;51.70;;;;;;5052095;28;1352;-66
2021/03/09 09:30:02;;;;;;;;;;;20.10;51.70;;;;;;5053585;28;1341;-63
2021/03/09 09:32:27;;;;;;;;;;;20.10;51.70;;;;;;5053470;28;1044;-63
2021/03/09 09:34:57;;;;;;;;;;;20.00;51.70;;;;;;5051962;28;1268;-63
2021/03/09 09:37:22;;;;;;;;;;;20.00;51.70;;;;;;5052512;28;1357;-64
2021/03/09 09:39:47;;;;;;;;;;;20.00;51.80;;;;;;5053250;28;1902;-63
2021/03/09 09:42:14;;;;;;;;;;;20.00;51.80;;;;;;5052251;28;1177;-63
2021/03/09 09:44:39;;;;;;;;;;;20.00;51.80;;;;;;5051904;28;1473;-63
2021/03/09 09:47:05;;;;;;;;;;;20.00;51.80;;;;;;5053503;28;1260;-63
2021/03/09 09:49:30;;;;;;;;;;;20.00;51.80;;;;;;5051791;28;1442;-65
2021/03/09 09:51:55;;;;;;;;;;;20.00;51.90;;;;;;5053190;28;1075;-63
2021/03/09 09:54:21;;;;;;;;;;;20.00;51.90;;;;;;5053021;28;1044;-63
2021/03/09 09:56:47;;;;;;;;;;;20.00;51.90;;;;;;5052110;28;1298;-65
2021/03/09 09:59:26;;;;;;;;;;;20.00;51.90;;;;;;5052486;28;1273;-64
2021/03/09 10:01:51;;;;;;;;;;;20.00;51.90;;;;;;5051970;28;1938;-63
2021/03/09 10:04:16;;;;;;;;;;;20.00;51.90;;;;;;5052727;28;1040;-65
2021/03/09 10:07:00;;;;;;;;;;;20.00;51.90;;;;;;5051794;28;1291;-64
2021/03/09 10:09:26;;;;;;;;;;;20.00;51.90;;;;;;5043634;28;1280;-63
2021/03/09 10:11:52;;;;;;;;;;;20.00;51.90;;;;;;5033611;28;1127;-66
2021/03/09 10:14:18;;;;;;;;;;;19.90;51.90;;;;;;5033043;28;1135;-64
2021/03/09 10:16:43;;;;;;;;;;;20.00;51.90;;;;;;5032669;28;1361;-66
2021/03/09 10:19:09;;;;;;;;;;;19.90;51.90;;;;;;5041397;28;1874;-63
2021/03/09 10:21:35;;;;;;;;;;;19.90;51.90;;;;;;5024518;28;1902;-64
2021/03/09 10:24:02;;;;;;;;;;;19.90;51.90;;;;;;5026294;28;1212;-63
2021/03/09 10:26:28;;;;;;;;;;;19.90;51.90;;;;;;5026884;28;1323;-64
2021/03/09 10:29:03;;;;;;;;;;;19.90;51.90;;;;;;5034798;28;1087;-65
2021/03/09 10:31:39;;;;;;;;;;;19.90;51.90;;;;;;5048337;28;2354;-65
2021/03/09 10:34:04;;;;;;;;;;;19.90;51.90;;;;;;5052706;28;1304;-65
2021/03/09 10:36:48;;;;;;;;;;;19.90;51.90;;;;;;5051259;28;1314;-69
2021/03/09 10:39:14;;;;;;;;;;;19.90;52.00;;;;;;5052517;28;1308;-66
2021/03/09 10:41:39;;;;;;;;;;;19.90;51.80;;;;;;5051288;28;2032;-68
2021/03/09 10:44:05;;;;;;;;;;;19.90;51.70;;;;;;5036094;28;2170;-68
2021/03/09 10:46:34;;;;;;;;;;;19.90;51.70;;;;;;5027615;28;1964;-67
2021/03/09 10:48:59;;;;;;;;;;;19.90;51.60;;;;;;5034446;28;1099;-68
2021/03/09 10:51:25;;;;;;;;;;;19.90;51.70;;;;;;5041594;28;1240;-68
2021/03/09 10:53:50;;;;;;;;;;;19.90;51.70;;;;;;5028501;28;1013;-67
2021/03/09 10:56:15;;;;;;;;;;;19.90;51.70;;;;;;5028419;28;1153;-67
2021/03/09 10:58:41;;;;;;;;;;;19.90;51.70;;;;;;5037396;28;1220;-66
2021/03/09 11:01:06;;;;;;;;;;;19.90;51.80;;;;;;5056442;28;1961;-66
2021/03/09 11:03:32;;;;;;;;;;;19.90;51.80;;;;;;5055050;28;1340;-66
2021/03/09 11:05:57;;;;;;;;;;;19.90;51.80;;;;;;5056324;28;1139;-66
2021/03/09 11:08:23;;;;;;;;;;;19.90;51.80;;;;;;5055911;28;1350;-66
2021/03/09 11:10:50;;;;;;;;;;;19.90;51.90;;;;;;5036088;28;1316;-66
2021/03/09 11:13:17;;;;;;;;;;;19.90;51.90;;;;;;5035896;28;1291;-66
2021/03/09 11:15:42;;;;;;;;;;;19.90;51.90;;;;;;5040791;28;1391;-66
2021/03/09 11:18:08;;;;;;;;;;;19.90;51.90;;;;;;5055802;28;1341;-66
2021/03/09 11:20:33;;;;;;;;;;;19.90;51.90;;;;;;5056058;28;1906;-66
2021/03/09 11:22:58;;;;;;;;;;;19.90;51.90;;;;;;5056143;28;1240;-66
2021/03/09 11:25:26;;;;;;;;;;;19.80;51.90;;;;;;5055690;28;1234;-67
2021/03/09 11:27:51;;;;;;;;;;;19.90;51.90;;;;;;5055528;28;1362;-67
2021/03/09 11:30:17;;;;;;;;;;;19.90;51.90;;;;;;5043287;28;1922;-68
2021/03/09 11:32:42;;;;;;;;;;;19.80;51.90;;;;;;5032884;28;1875;-67
2021/03/09 11:35:08;;;;;;;;;;;19.90;52.00;;;;;;5043802;28;1716;-67
2021/03/09 11:37:33;;;;;;;;;;;19.90;52.00;;;;;;5055434;28;1370;-67
2021/03/09 11:39:59;;;;;;;;;;;19.80;51.90;;;;;;5055420;28;1997;-67
2021/03/09 11:42:24;;;;;;;;;;;19.80;52.00;;;;;;5055544;28;1342;-67
2021/03/09 11:44:50;;;;;;;;;;;19.90;52.00;;;;;;5055412;28;1408;-67
2021/03/09 11:47:15;;;;;;;;;;;19.90;52.00;;;;;;5055456;28;1290;-67
2021/03/09 11:49:40;;;;;;;;;;;19.80;52.00;;;;;;5055530;28;1456;-67
2021/03/09 11:52:06;;;;;;;;;;;19.80;52.00;;;;;;5066715;28;1298;-69
2021/03/09 11:54:31;;;;;;;;;;;19.80;52.00;;;;;;5036592;28;1336;-64
2021/03/09 11:56:57;;;;;;;;;;;19.80;52.00;;;;;;5036931;28;1259;-65
2021/03/09 11:59:23;;;;;;;;;;;19.80;52.00;;;;;;5034857;28;1400;-67
2021/03/09 12:01:48;;;;;;;;;;;19.80;52.00;;;;;;5034596;28;1906;-67
2021/03/09 12:04:13;;;;;;;;;;;19.80;52.00;;;;;;5035742;28;1437;-68
2021/03/09 12:06:39;;;;;;;;;;;19.80;52.10;;;;;;5035150;28;1401;-67
2021/03/09 12:09:04;;;;;;;;;;;19.80;52.10;;;;;;5034881;28;1308;-64
2021/03/09 12:11:30;;;;;;;;;;;19.80;52.60;;;;;;5034760;28;1132;-64
2021/03/09 12:13:55;;;;;;;;;;;19.80;52.10;;;;;;5052641;28;1064;-65
2021/03/09 12:16:21;;;;;;;;;;;19.80;52.10;;;;;;5043491;28;1296;-64
2021/03/09 12:18:46;;;;;;;;;;;19.80;52.10;;;;;;5039009;28;1468;-66
2021/03/09 12:21:12;;;;;;;;;;;19.80;52.10;;;;;;5055062;28;1906;-66
2021/03/09 12:23:37;;;;;;;;;;;19.80;52.10;;;;;;5053467;28;1318;-66
2021/03/09 12:26:03;;;;;;;;;;;19.80;52.10;;;;;;5054779;28;1278;-67
2021/03/09 12:28:28;;;;;;;;;;;19.80;52.10;;;;;;5053659;28;1288;-66
2021/03/09 12:30:53;;;;;;;;;;;19.80;52.10;;;;;;5054907;28;1300;-67
2021/03/09 12:33:19;;;;;;;;;;;19.80;52.70;;;;;;5054621;28;1273;-68
2021/03/09 12:35:44;;;;;;;;;;;19.80;52.20;;;;;;5054821;28;1309;-68
2021/03/09 12:38:10;;;;;;;;;;;19.80;52.20;;;;;;5054133;28;1346;-67
2021/03/09 12:40:35;;;;;;;;;;;19.80;52.20;;;;;;5048529;28;1906;-68
2021/03/09 12:43:01;;;;;;;;;;;19.80;52.20;;;;;;5026166;28;1269;-68
2021/03/09 12:45:26;;;;;;;;;;;19.80;52.20;;;;;;5030318;28;1189;-68
2021/03/09 12:47:51;;;;;;;;;;;19.80;52.20;;;;;;5041418;28;1575;-68
2021/03/09 12:50:17;;;;;;;;;;;19.80;52.20;;;;;;5054608;28;1362;-68
2021/03/09 12:52:43;;;;;;;;;;;19.70;52.20;;;;;;5053222;28;1301;-68
2021/03/09 12:55:08;;;;;;;;;;;19.70;52.10;;;;;;5039358;28;1211;-68
2021/03/09 12:57:34;;;;;;;;;;;19.80;52.10;;;;;;5051636;28;1296;-68
2021/03/09 12:59:59;;;;;;;;;;;19.80;52.10;;;;;;5054471;28;1894;-68
2021/03/09 13:02:25;;;;;;;;;;;19.80;52.00;;;;;;5054132;28;1279;-66
2021/03/09 13:04:51;;;;;;;;;;;19.90;52.00;;;;;;5054212;28;1351;-68
2021/03/09 13:07:17;;;;;;;;;;;20.00;51.90;;;;;;5048282;28;1282;-67
2021/03/09 13:09:42;;;;;;;;;;;20.00;51.70;;;;;;5025981;28;1112;-67
2021/03/09 13:12:08;;;;;;;;;;;20.10;51.60;;;;;;5048115;28;1263;-66
2021/03/09 13:14:33;;;;;;;;;;;20.20;51.40;;;;;;5054073;28;1393;-66
2021/03/09 13:16:59;;;;;;;;;;;20.30;51.20;;;;;;5036839;28;1362;-66
2021/03/09 13:19:25;;;;;;;;;;;20.40;51.10;;;;;;5033997;28;1331;-65
2021/03/09 13:21:52;;;;;;;;;;;20.50;50.90;;;;;;5033591;28;1874;-65
2021/03/09 13:24:17;;;;;;;;;;;20.50;50.70;;;;;;5034253;28;1292;-65
2021/03/09 13:26:42;;;;;;;;;;;20.60;50.60;;;;;;5033830;28;1314;-65
2021/03/09 13:29:08;;;;;;;;;;;20.60;50.40;;;;;;5033139;28;1317;-67
2021/03/09 13:31:33;;;;;;;;;;;20.70;50.30;;;;;;5033951;28;1374;-64
2021/03/09 13:33:59;;;;;;;;;;;20.80;50.30;;;;;;5033500;28;1278;-64
2021/03/09 13:36:24;;;;;;;;;;;20.80;50.20;;;;;;5033415;28;1384;-63
2021/03/09 13:38:50;;;;;;;;;;;20.80;50.10;;;;;;5032856;28;1340;-65
2021/03/09 13:41:15;;;;;;;;;;;20.90;50.00;;;;;;5033045;28;1923;-66
2021/03/09 13:43:41;;;;;;;;;;;20.90;49.90;;;;;;5033249;28;1279;-66
2021/03/09 13:46:06;;;;;;;;;;;20.90;49.90;;;;;;5033326;28;1365;-67
2021/03/09 13:48:32;;;;;;;;;;;21.00;49.90;;;;;;5032831;28;1349;-66
2021/03/09 13:50:59;;;;;;;;;;;21.00;49.80;;;;;;5032121;28;1341;-68
2021/03/09 13:53:24;;;;;;;;;;;21.00;49.80;;;;;;5033182;28;1395;-67
2021/03/09 13:55:50;;;;;;;;;;;21.00;49.70;;;;;;5032824;28;1099;-67
2021/03/09 13:58:15;;;;;;;;;;;21.10;50.30;;;;;;5033146;28;1338;-68
2021/03/09 14:00:41;;;;;;;;;;;21.10;49.70;;;;;;5033065;28;1898;-68
2021/03/09 14:03:06;;;;;;;;;;;21.10;49.60;;;;;;5033388;28;1126;-68
2021/03/09 14:05:32;;;;;;;;;;;21.10;49.60;;;;;;5033061;28;1320;-68
2021/03/09 14:07:57;;;;;;;;;;;21.10;49.60;;;;;;5032819;28;1303;-66
2021/03/09 14:10:22;;;;;;;;;;;21.10;49.50;;;;;;5032488;28;1296;-68
2021/03/09 14:12:49;;;;;;;;;;;21.10;49.50;;;;;;5033287;28;1334;-68
2021/03/09 14:15:15;;;;;;;;;;;21.20;49.60;;;;;;5034695;28;1411;-68
2021/03/09 14:17:40;;;;;;;;;;;21.20;49.50;;;;;;5053061;28;1298;-66
2021/03/09 14:20:08;;;;;;;;;;;21.20;49.50;;;;;;5052744;28;1965;-66
2021/03/09 14:22:33;;;;;;;;;;;21.20;49.50;;;;;;5052850;28;1297;-65
2021/03/09 14:24:59;;;;;;;;;;;21.20;49.50;;;;;;5052603;28;1400;-67
2021/03/09 14:27:24;;;;;;;;;;;21.20;49.50;;;;;;5052192;28;1336;-67
2021/03/09 14:29:50;;;;;;;;;;;21.30;49.50;;;;;;5047863;28;2013;-66